Terminal Aerodrome Forecast
Issued by NWS Wakefield, VA

Home | Current Version | Previous Version | Text Only | Print | Product List | Glossary On
Versions: 1 2 3 4 5 6 7 8 9 10 11 12 13 14 15 16
793
FTUS41 KAKQ 260554 RRA
TAFORF
TAF
KORF 260554Z 2606/2706 04012G19KT P6SM OVC007
     FM261200 04016G25KT P6SM VCSH OVC007
     FM261600 04017G26KT P6SM BKN010
     FM270000 03019G29KT P6SM BKN015=

USA.gov is the U.S. government's official web portal to all federal, state and local government web resources and services.